Flight Track Log - Related Links

Times and Time Zones

All times are in EDT time to prevent confusion due to time zone crossing. See the DAL1981 flight status page for this flight to view local times or setup timezone preferences in your user account.

Time Position Orientation Groundspeed Altitude Reporting Facility
EDT Latitude Longitude Course Direction KTS MPH feet Rate Location/Type
Fri 06:17:42 AM 42.7319 -73.8081 180° South 159 183 1,300  Level Boston Center
Fri 06:18:25 AM 42.7006 -73.8103 183° South 174 200 2,500 2,389 Climbing Boston Center
Fri 06:19:35 AM 42.6603 -73.8744 230° Southwest 234 269 5,800 2,769 Climbing Boston Center
Fri 06:20:00 AM 42.5148 -74.1296 200° South  Level Estimated
Fri 06:20:35 AM 42.6631 -73.9703 272° West 234 269 8,500  Level Boston Center
Fri 06:21:00 AM 42.4365 -74.2382 198° South  Level Estimated
Fri 06:22:00 AM 42.3581 -74.3466 200° South  Level Estimated
Fri 06:22:35 AM 42.5864 -74.0956 230° Southwest 226 260 12,900  Level Boston Center
Fri 06:23:00 AM 42.2795 -74.4547 180° South  Level Estimated
Fri 06:23:35 AM 42.4886 -74.0786 173° South 287 330 15,500  Level Boston Center
Fri 06:24:35 AM 42.4014 -74.0625 172° South 339 390 17,700 2,100 Climbing Boston Center
Fri 06:25:35 AM 42.2972 -74.0456 173° South 350 403 19,700 1,800 Climbing Boston Center
Fri 06:26:35 AM 42.1953 -74.0347 175° South 356 410 21,300 1,350 Climbing Boston Center
Fri 06:27:35 AM 42.0911 -74.0431 183° South 367 422 22,400 1,100 Climbing Boston Center
Fri 06:28:35 AM 41.9806 -74.0517 183° South 386 444 23,500 1,300 Climbing Boston Center
Fri 06:29:35 AM 41.8614 -74.0597 183° South 410 472 25,000 1,532 Climbing Boston Center
Fri 06:31:43 AM 41.6367 -74.0519 179° South 405 466 28,300 1,404 Climbing New York Center
Fri 06:32:43 AM 41.5269 -74.0297 171° South 405 466 29,400 1,017 Climbing New York Center
Fri 06:33:41 AM 41.4086 -74.0131 174° South 414 476 30,300 1,109 Climbing New York Center
Fri 06:34:42 AM 41.2825 -74.0539 194° South 419 482 31,600 1,426 Climbing New York Center
Fri 06:35:43 AM 41.1794 -74.0900 195° South 414 476 33,200 1,109 Climbing New York Center
Fri 06:36:41 AM 41.1000 -74.1744 219° Southwest 370 426 33,800 407 Climbing New York Center
Fri 06:37:41 AM 41.0328 -74.2672 226° Southwest 375 432 34,000 99 Climbing New York Center
Fri 06:38:42 AM 40.9692 -74.3739 232° Southwest 375 432 34,000  Level New York Center
Fri 06:39:42 AM 40.9033 -74.4803 231° Southwest 375 432 34,000  Level New York Center
Fri 06:40:43 AM 40.8378 -74.5808 229° Southwest 375 432 34,000  Level New York Center
Fri 06:41:40 AM 40.7739 -74.6869 232° Southwest 375 432 34,000  Level New York Center
Fri 06:42:42 AM 40.7078 -74.7869 229° Southwest 375 432 34,000  Level New York Center
Fri 06:43:40 AM 40.6439 -74.8928 232° Southwest 375 432 34,000  Level New York Center
Fri 06:44:41 AM 40.5775 -75.0008 231° Southwest 375 432 34,000  Level New York Center
Fri 06:45:41 AM 40.5069 -75.1083 229° Southwest 386 444 34,000  Level New York Center
Fri 06:46:42 AM 40.4383 -75.2158 230° Southwest 391 450 34,000  Level New York Center
Fri 06:47:40 AM 40.3714 -75.3286 232° Southwest 391 450 34,000  Level New York Center
Fri 06:48:41 AM 40.3047 -75.4358 231° Southwest 391 450 34,000  Level New York Center
Fri 06:49:43 AM 40.2292 -75.5558 231° Southwest 391 450 34,000  Level New York Center
Fri 06:50:43 AM 40.1681 -75.6711 235° Southwest 391 450 34,000  Level New York Center
Fri 06:51:41 AM 40.1089 -75.7892 237° Southwest 391 450 34,000  Level New York Center
Fri 06:52:43 AM 40.0497 -75.9069 237° Southwest 391 450 34,000  Level New York Center
Fri 06:53:41 AM 39.9842 -76.0214 233° Southwest 391 450 34,000  Level New York Center
Fri 06:54:42 AM 39.9167 -76.1300 231° Southwest 391 450 34,000  Level New York Center
Fri 06:55:42 AM 39.8431 -76.2378 228° Southwest 391 450 34,000  Level New York Center
Fri 06:56:42 AM 39.7731 -76.3486 231° Southwest 405 466 34,000  Level New York Center
Fri 06:57:43 AM 39.7014 -76.4536 228° Southwest 405 466 34,000  Level New York Center
Fri 06:58:40 AM 39.6292 -76.5636 230° Southwest 405 466 34,000  Level New York Center
Fri 06:59:51 AM 39.5461 -76.6922 230° Southwest 398 458 34,000  Level Washington Center
Fri 07:00:51 AM 39.4742 -76.8014 230° Southwest 403 464 34,000  Level Washington Center
Fri 07:01:54 AM 39.4042 -76.9103 230° Southwest 403 464 34,000  Level Washington Center
Fri 07:02:52 AM 39.3322 -77.0189 229° Southwest 403 464 34,000  Level Washington Center
Fri 07:03:52 AM 39.2600 -77.1303 230° Southwest 403 464 34,000  Level Washington Center
Fri 07:04:52 AM 39.1878 -77.2383 229° Southwest 403 464 34,000  Level Washington Center
Fri 07:05:53 AM 39.1153 -77.3467 229° Southwest 403 464 34,000  Level Washington Center
Fri 07:06:53 AM 39.0408 -77.4517 228° Southwest 403 464 34,000  Level Washington Center
Fri 07:07:54 AM 38.9681 -77.5647 230° Southwest 403 464 34,000  Level Washington Center
Fri 07:08:51 AM 38.8997 -77.6642 229° Southwest 403 464 34,000  Level Washington Center
Fri 07:09:52 AM 38.8247 -77.7739 229° Southwest 408 470 34,000  Level Washington Center
Fri 07:10:52 AM 38.7475 -77.8889 229° Southwest 414 476 34,000  Level Washington Center
Fri 07:11:52 AM 38.6747 -77.9983 230° Southwest 419 482 34,000  Level Washington Center
Fri 07:12:53 AM 38.5972 -78.1100 228° Southwest 419 482 34,000  Level Washington Center
Fri 07:13:51 AM 38.5242 -78.2164 229° Southwest 419 482 34,000  Level Washington Center
Fri 07:14:52 AM 38.4467 -78.3275 228° Southwest 419 482 34,000  Level Washington Center
Fri 07:15:53 AM 38.3711 -78.4386 229° Southwest 424 488 34,000  Level Washington Center
Fri 07:16:53 AM 38.2975 -78.5442 228° Southwest 424 488 34,000  Level Washington Center
Fri 07:17:52 AM 38.2172 -78.6653 230° Southwest 419 482 34,000  Level Washington Center
Fri 07:18:52 AM 38.1417 -78.7731 228° Southwest 419 482 34,000  Level Washington Center
Fri 07:19:54 AM 38.0722 -78.8678 227° Southwest 419 482 34,000  Level Washington Center
Fri 07:20:52 AM 37.9961 -78.9778 229° Southwest 424 488 34,000  Level Washington Center
Fri 07:21:53 AM 37.9181 -79.0875 228° Southwest 424 488 34,000  Level Washington Center
Fri 07:22:53 AM 37.8397 -79.1942 227° Southwest 424 488 34,000  Level Washington Center
Fri 07:23:53 AM 37.7569 -79.3111 228° Southwest 424 488 34,000  Level Washington Center
Fri 07:24:54 AM 37.6828 -79.4097 226° Southwest 424 488 34,000  Level Washington Center
Fri 07:25:53 AM 37.5956 -79.5314 228° Southwest 424 488 34,000  Level Washington Center
Fri 07:26:54 AM 37.5233 -79.6297 227° Southwest 429 494 34,000  Level Washington Center
Fri 07:27:54 AM 37.4336 -79.7531 228° Southwest 429 494 34,000  Level Washington Center
Fri 07:28:51 AM 37.3525 -79.8611 227° Southwest 434 499 34,000  Level Washington Center
Fri 07:29:52 AM 37.2714 -79.9714 227° Southwest 429 494 34,000  Level Washington Center
Fri 07:30:52 AM 37.1989 -80.0689 227° Southwest 429 494 34,000  Level Washington Center
Fri 07:31:24 AM 37.1472 -80.1383 227° Southwest 427 491 34,000  Level Atlanta Center
Fri 07:32:24 AM 37.0672 -80.2464 227° Southwest 432 497 34,000  Level Atlanta Center
Fri 07:33:24 AM 36.9933 -80.3486 228° Southwest 432 497 34,000  Level Atlanta Center
Fri 07:34:24 AM 36.9153 -80.4561 228° Southwest 432 497 34,000  Level Atlanta Center
Fri 07:35:24 AM 36.8286 -80.5664 226° Southwest 432 497 34,000  Level Atlanta Center
Fri 07:36:24 AM 36.7444 -80.6814 228° Southwest 432 497 34,000 -100 Level Atlanta Center
Fri 07:37:24 AM 36.6619 -80.7936 228° Southwest 432 497 33,800 -400 Descending Atlanta Center
Fri 07:38:24 AM 36.5792 -80.9003 226° Southwest 437 503 33,200 -400 Descending Atlanta Center
Fri 07:39:24 AM 36.4944 -81.0094 226° Southwest 437 503 33,000 -100 Descending Atlanta Center
Fri 07:40:24 AM 36.4217 -81.1078 227° Southwest 437 503 33,000  Level Atlanta Center
Fri 07:41:24 AM 36.3389 -81.2217 228° Southwest 437 503 33,000  Level Atlanta Center
Fri 07:42:24 AM 36.2536 -81.3275 225° Southwest 437 503 33,000  Level Atlanta Center
Fri 07:43:24 AM 36.1706 -81.4383 227° Southwest 437 503 33,000  Level Atlanta Center
Fri 07:44:24 AM 36.0872 -81.5489 227° Southwest 437 503 33,000  Level Atlanta Center
Fri 07:45:24 AM 36.0058 -81.6567 227° Southwest 431 496 33,000  Level Atlanta Center
Fri 07:46:24 AM 35.9183 -81.7694 226° Southwest 445 512 33,000  Level Atlanta Center
Fri 07:47:24 AM 35.8347 -81.8794 227° Southwest 450 518 33,000  Level Atlanta Center
Fri 07:48:24 AM 35.7469 -81.9917 226° Southwest 455 524 33,000  Level Atlanta Center
Fri 07:49:24 AM 35.6592 -82.1014 225° Southwest 460 529 33,000  Level Atlanta Center
Fri 07:50:24 AM 35.5628 -82.2186 225° Southwest 454 522 33,000 -300 Level Atlanta Center
Fri 07:51:24 AM 35.4706 -82.3225 223° Southwest 454 522 32,400 -900 Descending Atlanta Center
Fri 07:52:24 AM 35.3800 -82.4264 223° Southwest 449 517 31,200 -850 Descending Atlanta Center
Fri 07:53:24 AM 35.2856 -82.5300 222° Southwest 449 517 30,700 -600 Descending Atlanta Center
Fri 07:54:24 AM 35.1908 -82.6358 222° Southwest 454 522 30,000 -700 Descending Atlanta Center
Fri 07:55:24 AM 35.0958 -82.7364 221° Southwest 460 529 29,300 -700 Descending Atlanta Center
Fri 07:56:24 AM 34.9967 -82.8444 222° Southwest 466 536 28,600 -700 Descending Atlanta Center
Fri 07:57:24 AM 34.8997 -82.9497 222° Southwest 473 544 27,900 -700 Descending Atlanta Center
Fri 07:58:24 AM 34.8025 -83.0547 222° Southwest 473 544 27,200 -700 Descending Atlanta Center
Fri 07:59:24 AM 34.7031 -83.1644 222° Southwest 473 544 26,500 -700 Descending Atlanta Center
Fri 08:00:24 AM 34.6078 -83.2717 223° Southwest 467 537 25,800 -1,300 Descending Atlanta Center
Fri 08:01:24 AM 34.5125 -83.3758 222° Southwest 467 537 23,900 -2,500 Descending Atlanta Center
Fri 08:02:24 AM 34.4233 -83.4772 223° Southwest 453 521 20,800 -3,200 Descending Atlanta Center
Fri 08:03:24 AM 34.3319 -83.5783 222° Southwest 448 516 17,500 -2,800 Descending Atlanta Center
Fri 08:04:24 AM 34.2528 -83.6619 221° Southwest 435 501 15,200 -2,550 Descending Atlanta Center
Fri 08:05:24 AM 34.1717 -83.7525 223° Southwest 423 487 12,400 -1,600 Descending Atlanta Center
Fri 08:06:24 AM 34.0967 -83.8331 222° Southwest 382 440 12,000 -800 Descending Atlanta Center
Fri 08:07:24 AM 34.0364 -83.8983 222° Southwest 322 371 10,800 -1,431 Descending Atlanta Center
Fri 08:08:13 AM 33.9667 -83.9333 203° Southwest 304 350 9,400 -991 Descending Atlanta TRACON
Fri 08:09:13 AM 33.9000 -83.9333 180° South 269 310 9,000 -150 Descending Atlanta TRACON
Fri 08:10:13 AM 33.8333 -83.9333 180° South 254 292 9,100 -421 Climbing Atlanta TRACON
Fri 08:11:07 AM 33.7667 -83.9333 180° South 251 289 8,200 -845 Descending Atlanta TRACON
Fri 08:11:24 AM 33.7400 -83.9414 194° South 258 297 8,100 -156 Descending Atlanta Center
Fri 08:12:24 AM 33.6711 -83.9414 180° South 251 289 8,000 -450 Descending Atlanta Center
Fri 08:13:24 AM 33.6294 -83.9739 213° Southwest 191 220 7,200 -500 Descending Atlanta Center
Fri 08:14:24 AM 33.6314 -84.0364 272° West 165 190 7,000 -654 Descending Atlanta Center
Fri 08:16:55 AM 33.6333 -84.1833 271° West 172 198 4,900 -878 Descending Atlanta TRACON
Fri 08:17:49 AM 33.6333 -84.2333 270° West 173 199 4,000 -944 Descending Atlanta TRACON
Fri 08:18:43 AM 33.6333 -84.2833 270° West 172 198 3,200 -889 Descending Atlanta TRACON

Login

Don't have an account? Register now (free) for customized features, flight alerts, and more!